createdAt,value
2016-06-08T09:55:34.969Z,65.14
2016-06-08T09:56:34.971Z,65.05
2016-06-08T09:57:34.974Z,64.85
2016-06-08T09:58:34.993Z,65.05
2016-06-08T09:59:35.589Z,65.05
2016-06-08T10:00:35.014Z,65.14
2016-06-08T10:01:41.454Z,64.85
2016-06-08T10:02:41.691Z,64.85
2016-06-08T10:03:41.506Z,64.85
2016-06-08T10:04:40.978Z,64.75
2016-06-08T10:05:41.465Z,64.75
2016-06-08T10:06:41.468Z,64.75
2016-06-08T10:07:41.877Z,64.85
2016-06-08T10:08:41.503Z,64.95
2016-06-08T10:09:41.492Z,64.65
2016-06-08T10:10:41.947Z,64.65
2016-06-08T10:11:41.794Z,64.69
2016-06-08T10:12:41.547Z,64.69
2016-06-08T10:13:41.549Z,64.69
2016-06-08T10:14:41.583Z,64.88
2016-06-08T10:15:41.539Z,64.69
2016-06-08T10:16:41.667Z,64.88
2016-06-08T10:17:41.935Z,64.78
2016-06-08T10:18:41.780Z,64.78
2016-06-08T10:19:42.205Z,64.98
2016-06-08T10:20:41.911Z,64.85
2016-06-08T10:21:42.117Z,64.85
2016-06-08T10:22:41.901Z,64.75
2016-06-08T10:23:41.982Z,64.78
2016-06-08T10:24:42.671Z,64.78
2016-06-08T10:25:41.518Z,64.98
2016-06-08T10:26:41.162Z,64.78
2016-06-08T10:27:41.946Z,64.78
2016-06-08T10:28:41.668Z,64.69
2016-06-08T10:29:41.826Z,64.37
2016-06-08T10:30:41.688Z,64.37
2016-06-08T10:31:41.800Z,64.3
2016-06-08T10:32:41.991Z,64.27
2016-06-08T10:33:41.728Z,64.59
2016-06-08T10:34:41.731Z,64.59
2016-06-08T10:35:41.779Z,64.56
2016-06-08T10:36:42.376Z,64.78
2016-06-08T10:37:41.770Z,64.78
2016-06-08T10:38:42.210Z,64.56
2016-06-08T10:39:41.853Z,64.85
2016-06-08T10:40:41.793Z,64.75
2016-06-08T10:41:41.781Z,64.78
2016-06-08T10:42:42.080Z,64.85
2016-06-08T10:43:43.458Z,64.65
2016-06-08T10:44:41.851Z,64.65
2016-06-08T10:45:41.822Z,64.56
2016-06-08T10:46:41.825Z,64.37
2016-06-08T10:47:41.843Z,64.01
2016-06-08T10:48:41.846Z,64.01
2016-06-08T10:49:41.864Z,64.01
2016-06-08T10:50:42.008Z,64.17
2016-06-08T10:51:41.869Z,64.17
2016-06-08T10:52:44.091Z,64.37
2016-06-08T10:53:41.891Z,64.11
2016-06-08T10:54:42.003Z,64.07
2016-06-08T10:55:41.912Z,64.11
2016-06-08T10:56:42.617Z,64.07
2016-06-08T10:57:41.995Z,64.59
2016-06-08T10:58:42.295Z,64.07
2016-06-08T10:59:42.282Z,64.07
2016-06-08T11:00:43.144Z,63.78
2016-06-08T11:01:41.960Z,64.17
2016-06-08T11:02:41.977Z,64.2
2016-06-08T11:03:41.965Z,64.11
2016-06-08T11:04:41.982Z,64.17
2016-06-08T11:05:41.985Z,64.17
2016-06-08T11:06:42.004Z,64.07
2016-06-08T11:07:42.023Z,64.27
2016-06-08T11:08:42.025Z,64.27
2016-06-08T11:09:42.012Z,64.27
2016-06-08T11:10:42.748Z,64.17
2016-06-08T11:11:42.267Z,63.98
2016-06-08T11:12:42.051Z,64.27
2016-06-08T11:13:42.069Z,64.65
2016-06-08T11:14:42.072Z,63.88
2016-06-08T11:15:42.309Z,63.78
2016-06-08T11:16:42.077Z,63.69
2016-06-08T11:17:42.283Z,63.88
2016-06-08T11:18:42.099Z,63.69
2016-06-08T11:19:42.116Z,63.88
2016-06-08T11:20:42.120Z,63.78
2016-06-08T11:21:42.123Z,63.88
2016-06-08T11:22:42.140Z,64.37
2016-06-08T11:23:42.159Z,63.98
2016-06-08T11:24:42.161Z,63.78
2016-06-08T11:25:42.164Z,63.78
2016-06-08T11:26:42.167Z,63.78
2016-06-08T11:27:43.279Z,63.78
2016-06-08T11:28:43.235Z,63.69
2016-06-08T11:29:43.347Z,63.78
2016-06-08T11:30:42.209Z,63.88
2016-06-08T11:31:42.212Z,64.37
2016-06-08T11:32:42.230Z,63.88
2016-06-08T11:33:42.232Z,63.49
2016-06-08T11:34:42.251Z,63.88
2016-06-08T11:35:42.301Z,63.49
2016-06-08T11:36:42.272Z,63.88
2016-06-08T11:37:42.275Z,63.59
2016-06-08T11:38:42.277Z,63.78
2016-06-08T11:39:42.295Z,63.78
2016-06-08T11:40:42.284Z,63.78
2016-06-08T11:41:42.317Z,63.78
2016-06-08T11:42:42.304Z,63.78
2016-06-08T11:43:42.322Z,63.98
2016-06-08T11:44:42.340Z,63.78
2016-06-08T11:45:42.734Z,63.78
2016-06-08T11:46:42.362Z,63.59
2016-06-08T11:47:42.348Z,63.78
2016-06-08T11:48:42.367Z,63.78
2016-06-08T11:49:42.510Z,63.78
2016-06-08T11:50:42.372Z,63.59
2016-06-08T11:51:42.422Z,63.59
2016-06-08T11:52:42.408Z,63.78
2016-06-08T11:53:42.411Z,63.69
2016-06-08T11:54:42.414Z,63.4
2016-06-08T11:55:42.416Z,63.49
2016-06-08T11:56:42.436Z,63.59
2016-06-08T11:57:42.469Z,63.59
2016-06-08T11:58:43.174Z,63.59
2016-06-08T11:59:42.818Z,63.59
2016-06-08T12:00:42.321Z,63.69
2016-06-08T12:01:42.557Z,63.62
2016-06-08T12:02:42.483Z,63.59
2016-06-08T12:03:42.501Z,63.69
2016-06-08T12:04:42.347Z,63.78
2016-06-08T12:05:42.522Z,63.69
2016-06-08T12:06:42.524Z,63.59
2016-06-08T12:07:42.527Z,63.88
2016-06-08T12:08:42.530Z,63.49
2016-06-08T12:09:42.423Z,63.3
2016-06-08T12:10:42.551Z,63.2
2016-06-08T12:11:42.413Z,64.11
2016-06-08T12:12:42.900Z,63.59
2016-06-08T12:13:42.465Z,63.2
2016-06-08T12:14:42.578Z,63.62
2016-06-08T12:15:42.595Z,63.3
2016-06-08T12:16:42.630Z,63.2
2016-06-08T12:17:42.633Z,63.88
2016-06-08T12:18:42.650Z,63.1
2016-06-08T12:19:42.481Z,63.2
2016-06-08T12:20:43.718Z,63.3
2016-06-08T12:21:43.455Z,63.1
2016-06-08T12:22:42.505Z,63.1
2016-06-08T12:23:43.399Z,63.1
2016-06-08T12:24:43.338Z,63.2
2016-06-08T12:25:43.075Z,63.49
2016-06-08T12:26:43.578Z,63.2
2016-06-08T12:27:43.081Z,63.2
2016-06-08T12:28:42.850Z,63.78
2016-06-08T12:29:43.915Z,63.1
2016-06-08T12:30:42.854Z,63.2
2016-06-08T12:31:43.249Z,63.2
2016-06-08T12:32:42.798Z,63.3
2016-06-08T12:33:42.519Z,63.01
2016-06-08T12:34:42.787Z,63.01
2016-06-08T12:35:43.181Z,63.3
2016-06-08T12:36:44.027Z,63.1
2016-06-08T12:37:42.936Z,63.01
2016-06-08T12:38:43.189Z,63.01
2016-06-08T12:39:42.910Z,63.1
2016-06-08T12:40:42.881Z,63.1
2016-06-08T12:41:42.806Z,63.2
2016-06-08T12:42:42.825Z,63.01
2016-06-08T12:43:42.843Z,63.2
2016-06-08T12:44:43.548Z,63.01
2016-06-08T12:45:42.848Z,62.91
2016-06-08T12:46:42.882Z,63.01
2016-06-08T12:47:42.900Z,62.91
2016-06-08T12:48:43.559Z,63.01
2016-06-08T12:49:43.656Z,63.2
2016-06-08T12:50:52.736Z,63.2
2016-06-08T12:51:43.817Z,63.2
2016-06-08T12:52:43.023Z,63.2
2016-06-08T12:53:43.166Z,63.1
2016-06-08T12:54:42.950Z,63.78
2016-06-08T12:55:42.938Z,63.78
2016-06-08T12:56:43.174Z,63.1
2016-06-08T12:57:42.959Z,63.3
2016-06-08T12:58:43.133Z,62.95
2016-06-08T12:59:43.667Z,63.04
2016-06-08T13:01:16.233Z,63.3
2016-06-08T13:01:43.438Z,63.1
2016-06-08T13:02:43.754Z,63.33
2016-06-08T13:03:43.599Z,63.1
2016-06-08T13:04:43.321Z,62.91
2016-06-08T13:05:43.730Z,63.04
2016-06-08T13:06:43.435Z,63.01
2016-06-08T13:07:43.282Z,62.95
2016-06-08T13:08:43.097Z,63.01
2016-06-08T13:09:42.568Z,63.2
2016-06-08T13:10:44.072Z,63.49
2016-06-08T13:11:43.090Z,63.49
2016-06-08T13:12:43.092Z,63.3
2016-06-08T13:13:43.642Z,63.4
2016-06-08T13:14:42.614Z,63.01
2016-06-08T13:15:43.726Z,62.91
2016-06-08T13:16:43.369Z,63.01
2016-06-08T13:17:43.215Z,62.91
2016-06-08T13:18:43.702Z,62.91
2016-06-08T13:19:43.392Z,62.91
2016-06-08T13:20:43.599Z,63.01
2016-06-08T13:21:43.180Z,62.91
2016-06-08T13:22:43.510Z,62.82
2016-06-08T13:23:43.169Z,62.62
2016-06-08T13:24:43.766Z,63.01
2016-06-08T13:25:43.456Z,62.62
2016-06-08T13:26:43.630Z,62.82
2016-06-08T13:27:43.492Z,62.72
2016-06-08T13:28:43.214Z,62.82
2016-06-08T13:29:44.138Z,62.72
2016-06-08T13:30:44.266Z,62.82
2016-06-08T13:31:43.253Z,62.72
2016-06-08T13:32:43.552Z,62.82
2016-06-08T13:33:43.243Z,62.72
2016-06-08T13:34:43.840Z,62.52
2016-06-08T13:35:43.905Z,62.43
2016-06-08T13:36:43.376Z,62.43
2016-06-08T13:37:43.659Z,62.43
2016-06-08T13:38:43.678Z,62.33
2016-06-08T13:39:43.463Z,62.72
2016-06-08T13:40:43.324Z,62.33
2016-06-08T13:41:43.327Z,62.72
2016-06-08T13:42:43.329Z,62.43
2016-06-08T13:43:43.348Z,62.75
2016-06-08T13:44:43.351Z,62.55
2016-06-08T13:45:43.354Z,62.52
2016-06-08T13:46:43.372Z,62.52
2016-06-08T13:47:43.375Z,62.52
2016-06-08T13:48:43.456Z,62.55
2016-06-08T13:49:43.395Z,62.52
2016-06-08T13:50:43.523Z,62.43
2016-06-08T13:51:43.463Z,63.01
2016-06-08T13:52:43.419Z,63.1
2016-06-08T13:53:43.859Z,62.13
2016-06-08T13:54:43.439Z,62.33
2016-06-08T13:55:43.459Z,62.43
2016-06-08T13:56:43.445Z,62.46
2016-06-08T13:57:43.494Z,62.43
2016-06-08T13:58:43.467Z,62.43
2016-06-08T13:59:43.469Z,62.43
2016-06-08T14:00:43.675Z,62.43
2016-06-08T14:01:43.490Z,62.82
2016-06-08T14:02:43.508Z,62.43
2016-06-08T14:03:43.511Z,62.62
2016-06-08T14:04:43.514Z,62.46
2016-06-08T14:05:43.532Z,62.72
2016-06-08T14:06:43.535Z,62.52
2016-06-08T14:07:43.538Z,62.52
2016-06-08T14:08:43.556Z,62.43
2016-06-08T14:09:43.558Z,62.33
2016-06-08T14:10:43.577Z,62.52
2016-06-08T14:11:43.579Z,62.43
2016-06-08T14:12:43.670Z,62.43
2016-06-08T14:13:43.847Z,62.91
2016-06-08T14:14:44.962Z,62.33
2016-06-08T14:15:44.234Z,62.13
2016-06-08T14:16:44.412Z,62.13
2016-06-08T14:17:44.528Z,62.33
2016-06-08T14:18:44.594Z,62.82
2016-06-08T14:19:44.677Z,62.43
2016-06-08T14:20:44.742Z,62.13
2016-06-08T14:21:44.808Z,62.23
2016-06-08T14:22:44.874Z,62.13
2016-06-08T14:23:44.900Z,62.82
2016-06-08T14:24:44.957Z,62.72
2016-06-08T14:25:44.966Z,62.43
2016-06-08T14:26:44.992Z,62.33
2016-06-08T14:27:45.027Z,62.13
2016-06-08T14:28:45.038Z,62.43
2016-06-08T14:29:45.065Z,62.46
2016-06-08T14:30:45.514Z,62.13
2016-06-08T14:31:45.103Z,62.55
2016-06-08T14:32:45.112Z,61.94
2016-06-08T14:33:45.119Z,62.43
2016-06-08T14:34:45.125Z,62.62
2016-06-08T14:35:45.146Z,62.43
2016-06-08T14:36:44.996Z,62.13
2016-06-08T14:37:45.158Z,62.62
2016-06-08T14:38:45.162Z,62.33
2016-06-08T14:39:45.181Z,62.62
2016-06-08T14:40:45.185Z,62.52
2016-06-08T14:41:45.206Z,62.13
2016-06-08T14:42:45.210Z,62.62
2016-06-08T14:43:45.229Z,62.43
2016-06-08T14:44:45.233Z,62.62
2016-06-08T14:45:45.251Z,62.33
2016-06-08T14:46:45.255Z,62.43
2016-06-08T14:47:45.258Z,62.43
2016-06-08T14:48:45.277Z,62.43
2016-06-08T14:49:45.264Z,62.13
2016-06-08T14:50:45.283Z,62.91
2016-06-08T14:51:45.302Z,62.04
2016-06-08T14:52:45.305Z,62.33
2016-06-08T14:53:45.323Z,62.33
2016-06-08T14:54:45.326Z,62.33
2016-06-08T14:55:45.329Z,62.23
2016-06-08T14:56:45.333Z,62.23
2016-06-08T14:57:45.367Z,62.62
2016-06-08T14:58:45.354Z,62.13
2016-06-08T14:59:45.373Z,61.94
2016-06-08T15:00:45.423Z,61.94
2016-06-08T15:01:45.379Z,62.82
2016-06-08T15:02:45.382Z,61.85
2016-06-08T15:03:45.401Z,62.33
2016-06-08T15:04:45.404Z,62.23
2016-06-08T15:05:45.407Z,61.94
2016-06-08T15:06:45.441Z,62.33
2016-06-08T15:07:45.429Z,62.33
2016-06-08T15:08:45.433Z,62.33
2016-06-08T15:09:45.451Z,62.33
2016-06-08T15:10:45.453Z,62.33
2016-06-08T15:11:45.472Z,62.13
2016-06-08T15:12:45.475Z,62.43
2016-06-08T15:13:45.479Z,62.13
2016-06-08T15:14:45.498Z,62.04
2016-06-08T15:15:45.501Z,61.85
2016-06-08T15:16:45.504Z,62.13
2016-06-08T15:17:45.522Z,62.33
2016-06-08T15:18:45.775Z,62.52
2016-06-08T15:19:45.528Z,62.13
2016-06-08T15:20:45.547Z,62.13
2016-06-08T15:21:45.550Z,62.13
2016-06-08T15:22:45.553Z,62.33
2016-06-08T15:23:45.572Z,62.33
2016-06-08T15:24:45.574Z,62.23
2016-06-08T15:25:45.594Z,62.33
2016-06-08T15:26:45.596Z,62.52
2016-06-08T15:27:45.600Z,62.23
2016-06-08T15:28:45.618Z,62.43
2016-06-08T15:29:45.637Z,62.33
2016-06-08T15:30:45.625Z,62.43
2016-06-08T15:31:45.643Z,62.33
2016-06-08T15:32:45.646Z,62.43
2016-06-08T15:33:45.649Z,62.43
2016-06-08T15:34:45.668Z,62.43
2016-06-08T15:35:45.672Z,62.33
2016-06-08T15:36:45.691Z,62.33
2016-06-08T15:37:45.694Z,62.43
2016-06-08T15:38:45.697Z,62.43
2016-06-08T15:39:45.715Z,62.23
2016-06-08T15:40:45.718Z,62.52
2016-06-08T15:41:45.721Z,62.52
2016-06-08T15:42:45.740Z,62.52
2016-06-08T15:43:45.743Z,62.52
2016-06-08T15:44:45.746Z,62.72
2016-06-08T15:45:46.296Z,62.43
2016-06-08T15:46:45.767Z,62.72
2016-06-08T15:47:45.770Z,62.52
2016-06-08T15:48:45.789Z,62.43
2016-06-08T15:49:45.793Z,62.72
2016-06-08T15:50:45.859Z,62.72
2016-06-08T15:51:45.815Z,62.52
2016-06-08T15:52:45.817Z,62.62
2016-06-08T15:53:45.836Z,62.62
2016-06-08T15:54:45.839Z,62.62
2016-06-08T15:55:45.842Z,62.72
2016-06-08T15:56:45.861Z,62.52
2016-06-08T15:57:45.864Z,62.62
2016-06-08T15:58:45.867Z,62.52
2016-06-08T15:59:45.886Z,62.72
2016-06-08T16:00:46.451Z,62.52
2016-06-08T16:01:45.985Z,62.62
2016-06-08T16:02:45.910Z,62.52
2016-06-08T16:03:45.914Z,62.62
2016-06-08T16:04:45.933Z,62.52
2016-06-08T16:05:45.936Z,62.62
2016-06-08T16:06:45.938Z,62.62
2016-06-08T16:07:45.942Z,61.94
2016-06-08T16:08:45.960Z,62.52
2016-06-08T16:09:45.979Z,62.43
2016-06-08T16:10:45.982Z,62.62
2016-06-08T16:11:45.985Z,62.62
2016-06-08T16:12:45.988Z,62.33
2016-06-08T16:13:45.851Z,62.62
2016-06-08T16:14:46.010Z,62.52
2016-06-08T16:15:46.685Z,62.52
2016-06-08T16:16:46.235Z,62.23
2016-06-08T16:17:46.034Z,62.62
2016-06-08T16:18:46.053Z,62.62
2016-06-08T16:19:46.056Z,62.33
2016-06-08T16:20:46.060Z,62.52
2016-06-08T16:21:46.079Z,62.72
2016-06-08T16:22:46.113Z,62.62
2016-06-08T16:23:46.381Z,62.52
2016-06-08T16:24:46.085Z,62.04
2016-06-08T16:25:46.387Z,62.13
2016-06-08T16:26:45.966Z,62.04
2016-06-08T16:27:45.969Z,61.94
2016-06-08T16:28:46.128Z,61.94
2016-06-08T16:29:46.131Z,61.85
2016-06-08T16:30:46.243Z,61.75
2016-06-08T16:31:46.246Z,61.75
2016-06-08T16:32:46.171Z,62.33
2016-06-08T16:33:46.174Z,61.94
2016-06-08T16:34:46.194Z,61.94
2016-06-08T16:35:46.197Z,61.94
2016-06-08T16:36:46.042Z,62.33
2016-06-08T16:37:46.203Z,61.94
2016-06-08T16:38:46.221Z,61.94
2016-06-08T16:39:46.224Z,62.04
2016-06-08T16:40:46.477Z,61.94
2016-06-08T16:41:46.247Z,61.94
2016-06-08T16:42:46.250Z,62.04
2016-06-08T16:43:45.783Z,62.04
2016-06-08T16:44:46.272Z,62.04
2016-06-08T16:45:46.275Z,61.85
2016-06-08T16:46:46.292Z,61.85
2016-06-08T16:47:46.296Z,61.94
2016-06-08T16:48:46.159Z,61.94
2016-06-08T16:49:46.318Z,62.04
2016-06-08T16:50:46.165Z,61.94
2016-06-08T16:51:46.339Z,61.85
2016-06-08T16:52:46.342Z,61.85
2016-06-08T16:53:46.361Z,62.13
2016-06-08T16:54:46.364Z,61.94
2016-06-08T16:55:46.211Z,62.04
2016-06-08T16:56:46.370Z,61.85
2016-06-08T16:57:46.374Z,61.94
2016-06-08T16:58:46.392Z,61.94
2016-06-08T16:59:46.396Z,62.13
2016-06-08T17:00:46.554Z,61.85
2016-06-08T17:01:46.464Z,61.94
2016-06-08T17:02:46.435Z,62.13
2016-06-08T17:03:46.595Z,61.94
2016-06-08T17:04:46.442Z,62.04
2016-06-08T17:05:46.476Z,61.94
2016-06-08T17:06:46.464Z,62.13
2016-06-08T17:07:46.467Z,61.94
2016-06-08T17:08:46.471Z,61.85
2016-06-08T17:09:46.488Z,61.75
2016-06-08T17:10:46.491Z,61.85
2016-06-08T17:11:46.495Z,61.85
2016-06-08T17:12:46.497Z,61.75
2016-06-08T17:13:46.517Z,61.85
2016-06-08T17:14:46.534Z,61.85
2016-06-08T17:15:46.398Z,61.85
2016-06-08T17:16:47.213Z,61.85
2016-06-08T17:17:46.560Z,61.75
2016-06-08T17:18:46.563Z,61.85
2016-06-08T17:19:46.566Z,61.85
2016-06-08T17:20:46.585Z,61.85
2016-06-08T17:21:46.588Z,61.85
2016-06-08T17:22:46.592Z,61.85
2016-06-08T17:23:46.609Z,61.85
2016-06-08T17:24:46.613Z,61.85
2016-06-08T17:25:46.616Z,61.85
2016-06-08T17:26:46.634Z,61.85
2016-06-08T17:27:46.638Z,61.75
2016-06-08T17:28:47.421Z,61.85
2016-06-08T17:29:46.753Z,62.13
2016-06-08T17:30:47.397Z,61.85
2016-06-08T17:31:46.681Z,61.85
2016-06-08T17:32:46.700Z,61.85
2016-06-08T17:33:46.687Z,61.85
2016-06-08T17:34:46.707Z,62.13
2016-06-08T17:35:46.709Z,61.85
2016-06-08T17:36:47.072Z,61.65
2016-06-08T17:37:46.715Z,61.75
2016-06-08T17:38:46.734Z,62.04
2016-06-08T17:39:46.736Z,61.75
2016-06-08T17:40:46.755Z,61.75
2016-06-08T17:41:46.759Z,61.62
2016-06-08T17:42:46.762Z,62.13
2016-06-08T17:43:46.781Z,62.04
2016-06-08T17:44:46.784Z,61.85
2016-06-08T17:45:46.834Z,61.75
2016-06-08T17:46:46.805Z,61.75
2016-06-08T17:47:46.825Z,61.65
2016-06-08T17:48:46.827Z,61.75
2016-06-08T17:49:46.814Z,61.75
2016-06-08T17:50:46.850Z,61.75
2016-06-08T17:51:46.836Z,61.75
2016-06-08T17:52:46.856Z,61.55
2016-06-08T17:53:46.859Z,61.75
2016-06-08T17:54:46.861Z,61.85
2016-06-08T17:55:46.724Z,61.85
2016-06-08T17:56:47.133Z,61.85
2016-06-08T17:57:46.902Z,62.04
2016-06-08T17:58:47.248Z,61.85
2016-06-08T17:59:46.908Z,62.04
2016-06-08T18:00:47.973Z,61.75
2016-06-08T18:01:47.336Z,61.85
2016-06-08T18:02:46.932Z,61.94
2016-06-08T18:03:46.952Z,62.04
2016-06-08T18:04:46.954Z,62.04
2016-06-08T18:05:46.957Z,61.94
2016-06-08T18:06:46.977Z,62.04
2016-06-08T18:07:46.979Z,61.85
2016-06-08T18:08:46.982Z,61.85
2016-06-08T18:09:47.001Z,61.94
2016-06-08T18:10:47.004Z,62.04
2016-06-08T18:11:47.023Z,61.85
2016-06-08T18:12:47.026Z,62.43
2016-06-08T18:13:47.030Z,62.04
2016-06-08T18:14:47.032Z,62.13
2016-06-08T18:15:47.051Z,62.1
2016-06-08T18:16:47.054Z,61.94
2016-06-08T18:17:47.072Z,62.13
2016-06-08T18:18:47.076Z,61.94
2016-06-08T18:19:47.078Z,62.13
2016-06-08T18:20:47.097Z,61.94
2016-06-08T18:21:47.101Z,61.94
2016-06-08T18:22:47.104Z,61.94
2016-06-08T18:23:47.107Z,62.13
2016-06-08T18:24:47.125Z,61.85
2016-06-08T18:25:47.128Z,62.23
2016-06-08T18:26:47.147Z,62.13
2016-06-08T18:27:47.150Z,61.91
2016-06-08T18:28:47.154Z,62.1
2016-06-08T18:29:47.172Z,62.1
2016-06-08T18:30:47.018Z,61.82
2016-06-08T18:31:47.209Z,62.13
2016-06-08T18:32:47.197Z,62.01
2016-06-08T18:33:47.199Z,62.1
2016-06-08T18:34:47.203Z,61.91
2016-06-08T18:35:47.222Z,62.3
2016-06-08T18:36:47.272Z,61.82
2016-06-08T18:37:47.228Z,62.1
2016-06-08T18:38:47.247Z,61.62
2016-06-08T18:39:47.093Z,61.62
2016-06-08T18:40:47.268Z,61.91
2016-06-08T18:41:47.287Z,62.01
2016-06-08T18:42:47.290Z,62.01
2016-06-08T18:43:47.293Z,62.1
2016-06-08T18:44:47.311Z,61.82
2016-06-08T18:45:47.315Z,62.01
2016-06-08T18:46:47.177Z,62.1
2016-06-08T18:47:47.320Z,62.04
2016-06-08T18:48:47.324Z,62.01
2016-06-08T18:49:47.342Z,62.01
2016-06-08T18:50:47.345Z,61.82
2016-06-08T18:51:47.349Z,61.72
2016-06-08T18:52:47.368Z,61.82
2016-06-08T18:53:47.371Z,61.72
2016-06-08T18:54:47.405Z,62.01
2016-06-08T18:55:47.440Z,62.01
2016-06-08T18:56:47.395Z,61.82
2016-06-08T18:57:47.415Z,61.82
2016-06-08T18:58:47.417Z,62.01
2016-06-08T18:59:47.482Z,62.01
2016-06-08T19:00:47.423Z,62.1
2016-06-08T19:01:47.443Z,61.72
2016-06-08T19:02:47.477Z,61.82
2016-06-08T19:03:47.527Z,62.01
2016-06-08T19:04:47.592Z,61.72
2016-06-08T19:05:47.517Z,62.01
2016-06-08T19:06:47.661Z,62.01
2016-06-08T19:07:47.602Z,61.82
2016-06-08T19:08:47.604Z,61.91
2016-06-08T19:09:47.576Z,61.72
2016-06-08T19:10:47.532Z,62.01
2016-06-08T19:11:47.645Z,61.82
2016-06-08T19:12:47.522Z,61.72
2016-06-08T19:13:47.572Z,61.82
2016-06-08T19:14:47.561Z,62.01
2016-06-08T19:15:47.657Z,61.72
2016-06-08T19:16:48.082Z,61.72
2016-06-08T19:17:47.445Z,61.72
2016-06-08T19:18:47.620Z,61.72
2016-06-08T19:19:47.716Z,61.72
2016-06-08T19:20:47.626Z,61.72
2016-06-08T19:21:47.675Z,61.62
2016-06-08T19:22:47.725Z,61.82
2016-06-08T19:23:47.682Z,62.1
2016-06-08T19:24:47.684Z,61.62
2016-06-08T19:25:47.750Z,61.82
2016-06-08T19:26:47.738Z,61.72
2016-06-08T19:27:47.679Z,61.82
2016-06-08T19:28:47.729Z,61.72
2016-06-08T19:29:47.699Z,61.82
2016-06-08T19:30:47.672Z,61.72
2016-06-08T19:31:48.769Z,61.82
2016-06-08T19:32:47.694Z,61.72
2016-06-08T19:33:47.697Z,61.82
2016-06-08T19:34:47.731Z,62.01
2016-06-08T19:35:47.765Z,61.72
2016-06-08T19:36:47.737Z,61.62
2016-06-08T19:37:47.849Z,61.72
2016-06-08T19:38:47.868Z,61.52
2016-06-08T19:39:47.809Z,61.72
2016-06-08T19:40:47.812Z,62.1
2016-06-08T19:41:47.768Z,62.01
2016-06-08T19:42:47.803Z,62.1
2016-06-08T19:43:48.290Z,61.72
2016-06-08T19:44:47.856Z,62.01
2016-06-08T19:45:49.062Z,62.01
2016-06-08T19:46:47.893Z,62.01
2016-06-08T19:47:48.334Z,62.1
2016-06-08T19:48:47.665Z,62.01
2016-06-08T19:49:47.855Z,61.98
2016-06-08T19:50:47.843Z,61.72
2016-06-08T19:51:47.847Z,61.72
2016-06-08T19:52:47.849Z,61.72
2016-06-08T19:53:47.868Z,61.69
2016-06-08T19:54:47.870Z,61.72
2016-06-08T19:55:47.889Z,61.72
2016-06-08T19:56:47.893Z,61.72
2016-06-08T19:57:47.896Z,61.72
2016-06-08T19:58:47.899Z,61.69
2016-06-08T19:59:47.917Z,61.72
2016-06-08T20:00:47.920Z,62.1
2016-06-08T20:01:47.939Z,62.1
2016-06-08T20:02:47.942Z,61.69
2016-06-08T20:03:47.946Z,61.98
2016-06-08T20:04:47.948Z,61.69
2016-06-08T20:05:47.983Z,61.72
2016-06-08T20:06:47.971Z,61.88
2016-06-08T20:07:47.973Z,62.2
2016-06-08T20:08:47.992Z,61.98
2016-06-08T20:09:47.995Z,61.88
2016-06-08T20:10:47.998Z,61.79
2016-06-08T20:11:48.016Z,61.69
2016-06-08T20:12:48.020Z,61.69
2016-06-08T20:13:48.039Z,61.91
2016-06-08T20:14:48.042Z,61.98
2016-06-08T20:15:48.045Z,61.98
2016-06-08T20:16:48.063Z,62.17
2016-06-08T20:17:48.707Z,61.69
2016-06-08T20:18:48.070Z,62.17
2016-06-08T20:19:48.088Z,62.07
2016-06-08T20:20:48.091Z,61.59
2016-06-08T20:21:48.110Z,61.49
2016-06-08T20:22:48.113Z,61.69
2016-06-08T20:23:48.115Z,61.69
2016-06-08T20:24:48.119Z,61.79
2016-06-08T20:25:48.138Z,61.69
2016-06-08T20:26:48.141Z,61.69
2016-06-08T20:27:48.144Z,61.98
2016-06-08T20:28:48.147Z,61.69
2016-06-08T20:29:48.167Z,61.69
2016-06-08T20:30:48.012Z,61.69
2016-06-08T20:31:48.703Z,61.98
2016-06-08T20:32:48.206Z,61.88
2016-06-08T20:33:48.193Z,61.98
2016-06-08T20:34:48.197Z,61.69
2016-06-08T20:35:48.216Z,61.49
2016-06-08T20:36:48.219Z,62.17
2016-06-08T20:37:48.222Z,61.49
2016-06-08T20:38:48.240Z,61.69
2016-06-08T20:39:48.244Z,61.69
2016-06-08T20:40:48.247Z,61.69
2016-06-08T20:41:48.265Z,61.59
2016-06-08T20:42:48.362Z,62.07
2016-06-08T20:43:48.271Z,61.69
2016-06-08T20:44:48.274Z,61.49
2016-06-08T20:45:48.387Z,61.69
2016-06-08T20:46:48.749Z,61.49
2016-06-08T20:47:48.314Z,61.59
2016-06-08T20:48:48.317Z,61.69
2016-06-08T20:49:48.321Z,61.69
2016-06-08T20:50:48.184Z,61.88
2016-06-08T20:51:48.374Z,61.79
2016-06-08T20:52:48.346Z,61.49
2016-06-08T20:53:48.349Z,61.69
2016-06-08T20:54:48.368Z,61.49
2016-06-08T20:55:48.372Z,61.79
2016-06-08T20:56:48.390Z,61.59
2016-06-08T20:57:48.392Z,61.49
2016-06-08T20:58:48.396Z,61.79
2016-06-08T20:59:48.399Z,61.69
2016-06-08T21:00:48.417Z,61.69
2016-06-08T21:01:48.420Z,61.59
2016-06-08T21:02:48.424Z,61.69
2016-06-08T21:03:48.443Z,61.79
2016-06-08T21:04:48.446Z,61.69
2016-06-08T21:05:48.449Z,61.79
2016-06-08T21:06:48.468Z,61.69
2016-06-08T21:07:48.470Z,61.79
2016-06-08T21:08:48.489Z,61.79
2016-06-08T21:09:48.493Z,61.79
2016-06-08T21:10:48.496Z,62.17
2016-06-08T21:11:48.499Z,62.07
2016-06-08T21:12:48.516Z,61.69
2016-06-08T21:13:48.520Z,61.69
2016-06-08T21:14:48.523Z,61.59
2016-06-08T21:15:48.558Z,61.69
2016-06-08T21:16:48.858Z,61.69
2016-06-08T21:17:48.548Z,61.59
2016-06-08T21:18:48.551Z,61.69
2016-06-08T21:19:48.413Z,61.79
2016-06-08T21:20:48.573Z,61.79
2016-06-08T21:21:48.591Z,62.17
2016-06-08T21:22:48.595Z,61.79
2016-06-08T21:23:48.614Z,61.69
2016-06-08T21:24:48.600Z,61.69
2016-06-08T21:25:48.620Z,61.98
2016-06-08T21:26:48.622Z,61.79
2016-06-08T21:27:48.626Z,61.98
2016-06-08T21:28:48.629Z,61.79
2016-06-08T21:29:48.648Z,61.69
2016-06-08T21:30:48.666Z,61.79
2016-06-08T21:31:48.669Z,61.79
2016-06-08T21:32:49.048Z,61.98
2016-06-08T21:33:48.675Z,61.79
2016-06-08T21:34:48.695Z,61.79
2016-06-08T21:35:48.713Z,61.79
2016-06-08T21:36:48.715Z,61.98
2016-06-08T21:37:48.704Z,61.98
2016-06-08T21:38:48.753Z,61.79
2016-06-08T21:39:48.725Z,61.98
2016-06-08T21:40:48.727Z,61.79
2016-06-08T21:41:48.747Z,61.69
2016-06-08T21:42:48.766Z,61.69
2016-06-08T21:43:48.769Z,61.79
2016-06-08T21:44:48.772Z,61.69
2016-06-08T21:45:48.775Z,61.98
2016-06-08T21:46:48.793Z,61.98
2016-06-08T21:47:48.874Z,61.98
2016-06-08T21:48:48.643Z,61.98
2016-06-08T21:49:48.803Z,61.79
2016-06-08T21:50:48.821Z,61.79
2016-06-08T21:51:48.825Z,61.79
2016-06-08T21:52:48.843Z,61.79
2016-06-08T21:53:48.846Z,62.07
2016-06-08T21:54:48.850Z,62.07
2016-06-08T21:55:48.868Z,61.88
2016-06-08T21:56:48.871Z,61.59
2016-06-08T21:57:48.874Z,61.79
2016-06-08T21:58:48.893Z,61.88
2016-06-08T21:59:48.896Z,61.79
2016-06-08T22:00:48.899Z,61.88
2016-06-08T22:01:48.903Z,61.98
2016-06-08T22:02:48.920Z,61.88
2016-06-08T22:03:48.924Z,61.98
2016-06-08T22:04:48.927Z,61.79
2016-06-08T22:05:48.929Z,61.79
2016-06-08T22:06:48.949Z,61.88
2016-06-08T22:07:48.967Z,61.79
2016-06-08T22:08:48.986Z,61.98
2016-06-08T22:09:48.974Z,62.07
2016-06-08T22:10:48.977Z,61.98
2016-06-08T22:11:48.980Z,61.88
2016-06-08T22:12:48.998Z,61.88
2016-06-08T22:13:49.002Z,61.98
2016-06-08T22:14:49.020Z,62.07
2016-06-08T22:15:49.351Z,61.88
2016-06-08T22:16:49.026Z,61.79
2016-06-08T22:17:49.046Z,61.88
2016-06-08T22:18:49.049Z,62.07
2016-06-08T22:19:49.051Z,61.88
2016-06-08T22:20:49.055Z,62.07
2016-06-08T22:21:49.072Z,61.79
2016-06-08T22:22:49.076Z,62.07
2016-06-08T22:23:49.079Z,61.98
2016-06-08T22:24:49.098Z,61.69
2016-06-08T22:25:49.101Z,61.79
2016-06-08T22:26:49.119Z,62.37
2016-06-08T22:27:49.138Z,61.69
2016-06-08T22:28:49.125Z,61.88
2016-06-08T22:29:49.129Z,61.88
2016-06-08T22:30:49.147Z,61.79
2016-06-08T22:31:48.995Z,61.79
2016-06-08T22:32:49.153Z,61.79
2016-06-08T22:33:49.188Z,62.07
2016-06-08T22:34:49.176Z,62.07
2016-06-08T22:35:49.179Z,62.27
2016-06-08T22:36:49.182Z,61.98
2016-06-08T22:37:49.185Z,61.98
2016-06-08T22:38:49.203Z,61.79
2016-06-08T22:39:49.222Z,62.07
2016-06-08T22:40:49.209Z,61.98
2016-06-08T22:41:49.229Z,61.79
2016-06-08T22:42:49.231Z,61.59
2016-06-08T22:43:49.251Z,61.59
2016-06-08T22:44:49.254Z,61.98
2016-06-08T22:45:49.256Z,61.98
2016-06-08T22:46:49.259Z,61.79
2016-06-08T22:47:49.981Z,61.88
2016-06-08T22:48:49.281Z,61.88
2016-06-08T22:49:49.284Z,61.66